Time;durP1;ratioP1;P1;durP2;ratioP2;P2;SDS_P1;SDS_P2;PMS_P1;PMS_P2;Temp;Humidity;BMP_temperature;BMP_pressure;BME280_temperature;BME280_humidity;BME280_pressure;Samples;Min_cycle;Max_cycle;Signal;HPM_P1;HPM_P2
2022/08/08 00:01:15;;;;;;;5.85;3.60;;;;;;;;;;5006540;28;20120;-75
2022/08/08 00:03:51;;;;;;;6.43;3.78;;;;;;;;;;5008653;28;20109;-75
2022/08/08 00:06:24;;;;;;;5.90;3.55;;;;;;;;;;5012266;28;20079;-74
2022/08/08 00:09:00;;;;;;;5.75;3.80;;;;;;;;;;5022022;28;20276;-74
2022/08/08 00:11:31;;;;;;;8.30;3.83;;;;;;;;;;5010104;28;20675;-74
2022/08/08 00:14:01;;;;;;;5.93;3.58;;;;;;;;;;5006823;28;20048;-75
2022/08/08 00:16:30;;;;;;;6.38;3.95;;;;;;;;;;5006418;28;20558;-74
2022/08/08 00:18:58;;;;;;;6.82;4.07;;;;;;;;;;5006568;28;20480;-74
2022/08/08 00:21:26;;;;;;;9.48;3.95;;;;;;;;;;5007837;28;20044;-75
2022/08/08 00:24:01;;;;;;;9.05;4.40;;;;;;;;;;5021283;28;20029;-75
2022/08/08 00:26:29;;;;;;;8.50;4.30;;;;;;;;;;5007528;28;20033;-75
2022/08/08 00:28:59;;;;;;;13.23;7.85;;;;;;;;;;5006333;28;20044;-74
2022/08/08 00:31:31;;;;;;;9.10;6.85;;;;;;;;;;5006929;28;20118;-73
2022/08/08 00:36:55;;;;;;;9.93;6.07;;;;;;;;;;5007298;28;20040;-75
2022/08/08 00:39:27;;;;;;;6.82;4.70;;;;;;;;;;5005877;28;20302;-74
2022/08/08 00:42:01;;;;;;;7.65;4.75;;;;;;;;;;5021039;28;20113;-75
2022/08/08 00:44:45;;;;;;;9.63;4.80;;;;;;;;;;5006199;28;20145;-74
2022/08/08 00:47:42;;;;;;;6.95;4.82;;;;;;;;;;5008053;28;20279;-74
2022/08/08 00:50:16;;;;;;;8.70;4.20;;;;;;;;;;5006652;28;20041;-74
2022/08/08 00:53:16;;;;;;;6.53;4.03;;;;;;;;;;5005997;28;20515;-76
2022/08/08 00:55:48;;;;;;;6.18;4.18;;;;;;;;;;4939657;28;20038;-75
2022/08/08 00:58:31;;;;;;;6.45;3.80;;;;;;;;;;4998185;28;20041;-82
2022/08/08 01:01:00;;;;;;;7.30;4.43;;;;;;;;;;5010615;28;20039;-80
2022/08/08 01:03:36;;;;;;;9.20;3.95;;;;;;;;;;5005835;28;20063;-74
2022/08/08 01:06:20;;;;;;;6.43;3.75;;;;;;;;;;5001427;28;20210;-75
2022/08/08 01:08:48;;;;;;;6.75;3.92;;;;;;;;;;5020126;28;20063;-74
2022/08/08 01:11:32;;;;;;;6.13;4.40;;;;;;;;;;5006299;28;20561;-75
2022/08/08 01:14:16;;;;;;;7.60;4.30;;;;;;;;;;5006489;28;20675;-75
2022/08/08 01:16:44;;;;;;;5.38;4.03;;;;;;;;;;5006734;28;20174;-74
2022/08/08 01:19:22;;;;;;;6.93;4.30;;;;;;;;;;5004632;28;20029;-74
2022/08/08 01:22:06;;;;;;;8.23;4.80;;;;;;;;;;5020875;28;20219;-74
2022/08/08 01:24:46;;;;;;;9.20;4.82;;;;;;;;;;5024383;28;20203;-74
2022/08/08 01:27:27;;;;;;;6.60;4.63;;;;;;;;;;5023859;28;20432;-74
2022/08/08 01:30:12;;;;;;;7.63;4.30;;;;;;;;;;5010590;28;20733;-74
2022/08/08 01:32:37;;;;;;;;;;;;;;;;;;5025094;28;20033;-74
2022/08/08 01:35:07;;;;;;;8.18;4.72;;;;;;;;;;5025168;28;19920;-74
2022/08/08 01:37:41;;;;;;;7.63;4.57;;;;;;;;;;5010377;28;20040;-74
2022/08/08 01:40:25;;;;;;;8.50;4.43;;;;;;;;;;5009122;28;20029;-74
2022/08/08 01:42:56;;;;;;;6.60;4.55;;;;;;;;;;5014819;28;20306;-74
2022/08/08 01:45:21;;;;;;;9.73;4.50;;;;;;;;;;5026783;28;20047;-81
2022/08/08 01:47:59;;;;;;;6.32;4.72;;;;;;;;;;5028611;28;22351;-82
2022/08/08 01:50:34;;;;;;;6.38;4.72;;;;;;;;;;5013151;28;20446;-81
2022/08/08 01:53:08;;;;;;;6.55;4.85;;;;;;;;;;5012616;28;20518;-82
2022/08/08 01:55:40;;;;;;;7.68;4.90;;;;;;;;;;5011958;28;20432;-81
2022/08/08 01:58:12;;;;;;;6.97;4.70;;;;;;;;;;5013082;28;20378;-82
2022/08/08 02:00:40;;;;;;;7.47;4.70;;;;;;;;;;5012724;28;20037;-81
2022/08/08 02:03:11;;;;;;;7.80;4.60;;;;;;;;;;5025780;28;20040;-81
2022/08/08 02:05:48;;;;;;;8.93;4.75;;;;;;;;;;5027027;28;20570;-82
2022/08/08 02:08:24;;;;;;;8.93;5.22;;;;;;;;;;5012949;28;20135;-81
2022/08/08 02:10:59;;;;;;;7.65;5.45;;;;;;;;;;5013770;28;20051;-81
2022/08/08 02:13:43;;;;;;;7.95;4.75;;;;;;;;;;5028246;28;20025;-80
2022/08/08 02:16:15;;;;;;;10.25;5.55;;;;;;;;;;5014239;28;20584;-81
2022/08/08 02:19:05;;;;;;;8.07;5.47;;;;;;;;;;5010644;28;20677;-75
2022/08/08 02:24:30;;;;;;;8.85;5.63;;;;;;;;;;5010022;28;20029;-75
2022/08/08 02:27:06;;;;;;;9.50;5.53;;;;;;;;;;5008742;28;20041;-75
2022/08/08 02:29:37;;;;;;;8.52;5.40;;;;;;;;;;5009038;28;20152;-74
2022/08/08 02:32:11;;;;;;;7.60;5.18;;;;;;;;;;5009282;28;20033;-74
2022/08/08 02:34:56;;;;;;;7.60;4.95;;;;;;;;;;5007291;28;20599;-74
2022/08/08 02:37:30;;;;;;;8.80;5.88;;;;;;;;;;5013867;28;20133;-75
2022/08/08 02:40:00;;;;;;;8.80;5.70;;;;;;;;;;5022624;28;20040;-75
2022/08/08 02:42:29;;;;;;;12.82;5.70;;;;;;;;;;5011955;28;20822;-82
2022/08/08 02:44:54;;;;;;;8.90;5.60;;;;;;;;;;5019604;28;20386;-80
2022/08/08 02:47:51;;;;;;;8.07;6.15;;;;;;;;;;5019424;28;20037;-81
2022/08/08 02:50:32;;;;;;;7.78;5.70;;;;;;;;;;4995743;28;20277;-81
2022/08/08 02:53:06;;;;;;;8.23;5.20;;;;;;;;;;5015850;28;20549;-81
2022/08/08 02:55:50;;;;;;;8.95;5.40;;;;;;;;;;5017788;28;20043;-82
2022/08/08 02:58:21;;;;;;;9.60;5.95;;;;;;;;;;5012024;28;20170;-81
2022/08/08 03:00:46;;;;;;;11.10;6.22;;;;;;;;;;5014364;28;20029;-81
2022/08/08 03:03:27;;;;;;;7.43;5.40;;;;;;;;;;5014794;28;20041;-82
2022/08/08 03:06:11;;;;;;;10.10;6.35;;;;;;;;;;5013576;28;20480;-81
2022/08/08 03:08:42;;;;;;;7.80;5.80;;;;;;;;;;5028058;28;20155;-81
2022/08/08 03:11:08;;;;;;;8.30;5.68;;;;;;;;;;5010328;28;20033;-81
2022/08/08 03:13:39;;;;;;;8.45;5.75;;;;;;;;;;5013448;28;20039;-81
2022/08/08 03:16:17;;;;;;;11.35;6.28;;;;;;;;;;5016354;28;20106;-82
2022/08/08 03:18:45;;;;;;;10.80;6.28;;;;;;;;;;5027380;28;20160;-82
2022/08/08 03:21:11;;;;;;;9.13;6.00;;;;;;;;;;5028408;28;20504;-82
2022/08/08 03:23:36;;;;;;;8.13;6.63;;;;;;;;;;5014553;28;20452;-81
2022/08/08 03:26:01;;;;;;;8.35;5.57;;;;;;;;;;5015771;28;20858;-77
2022/08/08 03:28:31;;;;;;;9.70;6.25;;;;;;;;;;5015709;28;20078;-83
2022/08/08 03:33:16;;;;;;;9.55;5.88;;;;;;;;;;5022828;28;20831;-81
2022/08/08 03:33:45;;;;;;;9.43;7.07;;;;;;;;;;5013514;28;20033;-81
2022/08/08 03:36:12;;;;;;;13.50;7.90;;;;;;;;;;5013186;28;20093;-82
2022/08/08 03:38:37;;;;;;;12.57;7.50;;;;;;;;;;5016222;28;20109;-82
2022/08/08 03:41:02;;;;;;;12.82;7.75;;;;;;;;;;5003633;28;20036;-81
2022/08/08 03:43:27;;;;;;;11.45;7.15;;;;;;;;;;5024821;28;20213;-83
2022/08/08 03:45:53;;;;;;;9.32;6.95;;;;;;;;;;5022379;28;20037;-83
2022/08/08 03:48:18;;;;;;;10.75;6.97;;;;;;;;;;5021427;28;20214;-81
2022/08/08 03:50:50;;;;;;;10.55;6.60;;;;;;;;;;5022458;28;20068;-81
2022/08/08 03:53:17;;;;;;;8.48;6.80;;;;;;;;;;5014926;28;20068;-81
2022/08/08 03:55:44;;;;;;;11.15;7.22;;;;;;;;;;5013293;28;20474;-78
2022/08/08 03:58:10;;;;;;;12.65;7.10;;;;;;;;;;5035379;28;20426;-81
2022/08/08 04:00:35;;;;;;;12.45;7.38;;;;;;;;;;5020854;28;20594;-74
2022/08/08 04:03:02;;;;;;;12.20;7.30;;;;;;;;;;5022222;28;20090;-73
2022/08/08 04:05:29;;;;;;;12.70;7.03;;;;;;;;;;5007960;28;20056;-75
2022/08/08 04:07:55;;;;;;;12.70;6.88;;;;;;;;;;5008152;28;20037;-74
2022/08/08 04:10:21;;;;;;;11.43;7.45;;;;;;;;;;5007115;28;20033;-74
2022/08/08 04:12:46;;;;;;;10.20;7.35;;;;;;;;;;5014768;28;20751;-74
2022/08/08 04:15:12;;;;;;;11.43;7.47;;;;;;;;;;5010528;28;20029;-75
2022/08/08 04:17:37;;;;;;;10.02;7.13;;;;;;;;;;5022053;28;20040;-74
2022/08/08 04:20:03;;;;;;;12.80;7.38;;;;;;;;;;5006400;28;20029;-74
2022/08/08 04:22:29;;;;;;;12.85;7.72;;;;;;;;;;5021063;28;20049;-74
2022/08/08 04:24:54;;;;;;;14.82;9.38;;;;;;;;;;5011190;28;20068;-75
2022/08/08 04:27:20;;;;;;;15.80;8.88;;;;;;;;;;5007693;28;20064;-74
2022/08/08 04:29:45;;;;;;;10.40;8.40;;;;;;;;;;5012229;28;20176;-74
2022/08/08 04:32:13;;;;;;;14.18;8.63;;;;;;;;;;5001801;28;20956;-74
2022/08/08 04:34:41;;;;;;;9.95;8.13;;;;;;;;;;5004903;28;20535;-73
2022/08/08 04:37:06;;;;;;;13.27;8.07;;;;;;;;;;5007759;28;21134;-75
2022/08/08 04:39:32;;;;;;;10.52;7.35;;;;;;;;;;5006834;28;20158;-73
2022/08/08 04:41:57;;;;;;;8.80;6.55;;;;;;;;;;5007422;28;20041;-74
2022/08/08 04:44:23;;;;;;;12.52;7.18;;;;;;;;;;5007006;28;20619;-74
2022/08/08 04:46:49;;;;;;;9.30;6.50;;;;;;;;;;5007336;28;20704;-74
2022/08/08 04:49:16;;;;;;;11.98;6.95;;;;;;;;;;5009804;28;20041;-75
2022/08/08 04:51:42;;;;;;;12.27;7.45;;;;;;;;;;5021286;28;20413;-75
2022/08/08 04:54:07;;;;;;;11.63;7.32;;;;;;;;;;5020624;28;20520;-74
2022/08/08 04:56:33;;;;;;;11.77;6.68;;;;;;;;;;5007661;28;20152;-74
2022/08/08 04:59:01;;;;;;;9.05;7.00;;;;;;;;;;5005647;28;20040;-73
2022/08/08 05:01:26;;;;;;;12.57;6.53;;;;;;;;;;5006977;28;20580;-73
2022/08/08 05:03:51;;;;;;;12.13;6.57;;;;;;;;;;5020675;28;20030;-73
2022/08/08 05:06:17;;;;;;;10.98;5.97;;;;;;;;;;5021934;28;20061;-73
2022/08/08 05:08:42;;;;;;;10.07;6.15;;;;;;;;;;5020147;28;20041;-73
2022/08/08 05:11:13;;;;;;;13.27;6.00;;;;;;;;;;5007597;28;20072;-74
2022/08/08 05:13:40;;;;;;;11.52;5.80;;;;;;;;;;5009396;28;20033;-73
2022/08/08 05:16:05;;;;;;;9.23;5.88;;;;;;;;;;5006791;28;20044;-73
2022/08/08 05:18:32;;;;;;;9.68;5.32;;;;;;;;;;5022183;28;20481;-73
2022/08/08 05:20:59;;;;;;;10.10;5.10;;;;;;;;;;5013453;28;20040;-73
2022/08/08 05:23:25;;;;;;;8.52;5.10;;;;;;;;;;5020985;28;20464;-74
2022/08/08 05:25:50;;;;;;;11.15;5.15;;;;;;;;;;5005913;28;20221;-73
2022/08/08 05:28:16;;;;;;;10.13;5.00;;;;;;;;;;5004526;28;20044;-75
2022/08/08 05:30:41;;;;;;;10.48;4.80;;;;;;;;;;5006396;28;20124;-73
2022/08/08 05:33:07;;;;;;;9.38;4.35;;;;;;;;;;5021367;28;20072;-73
2022/08/08 05:35:33;;;;;;;8.32;4.32;;;;;;;;;;5006327;28;20330;-73
2022/08/08 05:38:05;;;;;;;7.72;3.75;;;;;;;;;;5019989;28;20515;-73
2022/08/08 05:40:33;;;;;;;9.30;4.10;;;;;;;;;;5005931;28;20407;-73
2022/08/08 05:43:02;;;;;;;9.73;3.83;;;;;;;;;;5021257;28;20269;-73
2022/08/08 05:45:29;;;;;;;8.65;4.32;;;;;;;;;;5011472;28;20536;-73
2022/08/08 05:47:55;;;;;;;9.02;3.95;;;;;;;;;;5006602;28;20733;-73
2022/08/08 05:50:25;;;;;;;7.30;3.60;;;;;;;;;;5006361;28;20044;-73
2022/08/08 05:52:51;;;;;;;9.27;4.40;;;;;;;;;;5009126;28;20335;-72
2022/08/08 05:55:18;;;;;;;8.40;3.58;;;;;;;;;;5006283;28;20033;-74
2022/08/08 05:57:46;;;;;;;6.78;3.45;;;;;;;;;;5019399;28;20052;-73
2022/08/08 06:00:11;;;;;;;6.93;3.25;;;;;;;;;;5020372;28;20449;-74
2022/08/08 06:05:21;;;;;;;6.97;3.00;;;;;;;;;;5005492;28;20079;-74
2022/08/08 06:07:49;;;;;;;6.10;3.08;;;;;;;;;;5006389;28;20035;-73
2022/08/08 06:10:15;;;;;;;8.50;2.70;;;;;;;;;;5008781;28;20098;-73
2022/08/08 06:12:41;;;;;;;10.15;3.22;;;;;;;;;;5010287;28;20922;-73
2022/08/08 06:15:07;;;;;;;7.85;3.10;;;;;;;;;;5013475;28;20553;-74
2022/08/08 06:17:33;;;;;;;8.00;3.03;;;;;;;;;;5010795;28;20043;-74
2022/08/08 06:20:01;;;;;;;5.72;2.45;;;;;;;;;;5010376;28;20476;-74
2022/08/08 06:22:26;;;;;;;8.10;2.63;;;;;;;;;;5011206;28;20859;-74
2022/08/08 06:24:52;;;;;;;7.63;2.28;;;;;;;;;;5024555;28;20569;-74
2022/08/08 06:27:22;;;;;;;8.75;2.55;;;;;;;;;;5008925;28;21584;-73
2022/08/08 06:29:54;;;;;;;7.75;2.63;;;;;;;;;;5025055;28;20486;-73
2022/08/08 06:32:22;;;;;;;5.68;2.50;;;;;;;;;;5010917;28;20382;-74
2022/08/08 06:34:51;;;;;;;7.28;1.90;;;;;;;;;;5010613;28;20666;-74
2022/08/08 06:37:22;;;;;;;6.75;1.75;;;;;;;;;;5015702;28;20071;-74
2022/08/08 06:39:52;;;;;;;6.28;1.90;;;;;;;;;;5024999;28;20040;-73
2022/08/08 06:42:18;;;;;;;4.38;1.50;;;;;;;;;;5012363;28;22153;-74
2022/08/08 06:44:47;;;;;;;6.70;1.67;;;;;;;;;;5010593;28;20037;-74
2022/08/08 06:47:15;;;;;;;6.30;1.50;;;;;;;;;;5014886;28;20037;-74
2022/08/08 06:49:41;;;;;;;5.25;1.63;;;;;;;;;;5011345;28;20060;-74
2022/08/08 06:52:07;;;;;;;7.30;1.88;;;;;;;;;;5009314;28;22596;-73
2022/08/08 06:54:33;;;;;;;4.57;1.45;;;;;;;;;;5009303;28;20036;-74
2022/08/08 06:57:01;;;;;;;5.05;1.70;;;;;;;;;;5023486;28;20273;-73
2022/08/08 06:59:29;;;;;;;6.82;1.60;;;;;;;;;;5009695;28;20032;-72
2022/08/08 07:02:01;;;;;;;4.88;1.70;;;;;;;;;;5008749;28;20399;-73
2022/08/08 07:04:44;;;;;;;5.00;1.50;;;;;;;;;;5009653;28;20029;-73
2022/08/08 07:07:10;;;;;;;5.57;1.42;;;;;;;;;;5011270;28;20031;-73
2022/08/08 07:09:37;;;;;;;5.65;1.80;;;;;;;;;;5009182;28;20232;-73
2022/08/08 07:12:06;;;;;;;5.60;1.70;;;;;;;;;;5010954;28;20271;-73
2022/08/08 07:14:41;;;;;;;6.63;2.05;;;;;;;;;;5001708;28;20052;-75
2022/08/08 07:17:10;;;;;;;5.70;1.70;;;;;;;;;;5008732;28;20101;-74
2022/08/08 07:19:36;;;;;;;8.95;1.73;;;;;;;;;;5023585;28;20037;-72
2022/08/08 07:22:08;;;;;;;3.88;1.60;;;;;;;;;;5010005;28;20160;-72
2022/08/08 07:24:48;;;;;;;4.10;1.73;;;;;;;;;;5015430;28;20040;-74
2022/08/08 07:27:15;;;;;;;4.55;1.50;;;;;;;;;;5009871;28;20384;-73
2022/08/08 07:29:41;;;;;;;5.55;1.90;;;;;;;;;;5010262;28;20040;-73
2022/08/08 07:32:09;;;;;;;5.00;1.60;;;;;;;;;;5009031;28;20149;-73
2022/08/08 07:34:34;;;;;;;5.07;1.75;;;;;;;;;;5009222;28;20037;-74
2022/08/08 07:37:01;;;;;;;7.57;2.03;;;;;;;;;;5009493;28;20040;-73
2022/08/08 07:39:26;;;;;;;4.55;1.67;;;;;;;;;;5008616;28;20033;-73
2022/08/08 07:41:52;;;;;;;7.25;1.80;;;;;;;;;;5008069;28;20048;-72
2022/08/08 07:44:17;;;;;;;4.00;1.42;;;;;;;;;;5007662;28;20090;-73
2022/08/08 07:46:46;;;;;;;5.25;1.40;;;;;;;;;;5006131;28;22015;-72
2022/08/08 07:49:12;;;;;;;4.15;1.40;;;;;;;;;;5005734;28;20270;-74
2022/08/08 07:51:38;;;;;;;5.35;1.73;;;;;;;;;;5014359;28;20047;-74
2022/08/08 07:54:18;;;;;;;4.53;1.40;;;;;;;;;;5007993;28;20037;-73
2022/08/08 07:56:59;;;;;;;5.37;1.47;;;;;;;;;;5007868;28;20275;-73
2022/08/08 07:59:26;;;;;;;5.80;1.45;;;;;;;;;;5006290;28;20536;-73
2022/08/08 08:01:56;;;;;;;5.60;1.45;;;;;;;;;;5007143;28;20122;-73
2022/08/08 08:04:24;;;;;;;3.47;1.20;;;;;;;;;;5008177;28;20041;-73
2022/08/08 08:06:51;;;;;;;4.32;1.42;;;;;;;;;;5007637;28;20450;-73
2022/08/08 08:09:24;;;;;;;3.15;1.05;;;;;;;;;;5008160;28;20052;-73
2022/08/08 08:11:50;;;;;;;3.50;1.20;;;;;;;;;;5013421;28;20844;-72
2022/08/08 08:14:17;;;;;;;4.25;1.65;;;;;;;;;;5007432;28;20124;-73
2022/08/08 08:16:44;;;;;;;5.63;1.48;;;;;;;;;;5008944;28;20744;-74
2022/08/08 08:19:10;;;;;;;6.25;1.45;;;;;;;;;;5022116;28;20041;-73
2022/08/08 08:21:37;;;;;;;6.63;1.67;;;;;;;;;;5038460;27;20449;-71
2022/08/08 08:24:03;;;;;;;5.22;1.42;;;;;;;;;;5007634;28;20231;-72
2022/08/08 08:26:29;;;;;;;3.88;1.58;;;;;;;;;;5022513;28;20041;-72
2022/08/08 08:28:54;;;;;;;5.90;1.48;;;;;;;;;;5022910;28;20028;-71
2022/08/08 08:31:19;;;;;;;6.03;1.83;;;;;;;;;;5007661;28;20033;-73
2022/08/08 08:33:45;;;;;;;4.90;1.42;;;;;;;;;;5006369;28;20037;-73
2022/08/08 08:36:11;;;;;;;6.93;1.48;;;;;;;;;;5004470;28;20064;-72
2022/08/08 08:38:36;;;;;;;4.38;1.58;;;;;;;;;;5007808;28;20135;-74
2022/08/08 08:41:02;;;;;;;5.10;1.60;;;;;;;;;;5023205;28;21190;-74
2022/08/08 08:43:29;;;;;;;3.17;1.40;;;;;;;;;;5007510;28;20045;-74
2022/08/08 08:45:55;;;;;;;6.50;1.50;;;;;;;;;;5008947;28;20061;-73
2022/08/08 08:48:21;;;;;;;6.35;1.38;;;;;;;;;;5007827;28;20666;-72
2022/08/08 08:50:53;;;;;;;4.55;1.45;;;;;;;;;;5008199;28;20541;-72
2022/08/08 08:53:19;;;;;;;3.22;1.20;;;;;;;;;;5020969;28;20218;-72
2022/08/08 08:55:46;;;;;;;2.72;1.10;;;;;;;;;;5008836;28;20036;-72
2022/08/08 08:58:19;;;;;;;6.15;1.42;;;;;;;;;;5006889;28;20526;-71
2022/08/08 09:00:44;;;;;;;4.28;1.15;;;;;;;;;;5021150;28;20327;-73
2022/08/08 09:03:10;;;;;;;6.35;1.75;;;;;;;;;;5007062;28;20620;-73
2022/08/08 09:05:38;;;;;;;6.70;1.50;;;;;;;;;;5006604;28;20037;-74
2022/08/08 09:08:05;;;;;;;4.65;1.20;;;;;;;;;;5006426;28;20040;-75
2022/08/08 09:10:33;;;;;;;4.78;1.48;;;;;;;;;;5008432;28;20028;-71
2022/08/08 09:12:59;;;;;;;3.65;1.33;;;;;;;;;;5037424;28;20685;-73
2022/08/08 09:15:24;;;;;;;5.32;1.60;;;;;;;;;;5007368;28;20382;-73
2022/08/08 09:17:49;;;;;;;6.03;1.75;;;;;;;;;;5022684;28;20201;-73
2022/08/08 09:20:15;;;;;;;3.72;1.40;;;;;;;;;;5008498;28;20504;-73
2022/08/08 09:22:41;;;;;;;7.72;1.70;;;;;;;;;;5006762;28;20040;-73
2022/08/08 09:25:07;;;;;;;5.00;1.52;;;;;;;;;;5011803;28;20552;-73
2022/08/08 09:27:32;;;;;;;5.40;1.60;;;;;;;;;;5008797;28;20188;-72
2022/08/08 09:29:58;;;;;;;7.00;1.33;;;;;;;;;;5012445;28;20029;-73
2022/08/08 09:32:29;;;;;;;5.15;1.45;;;;;;;;;;5009032;28;20033;-73
2022/08/08 09:34:54;;;;;;;4.88;1.52;;;;;;;;;;5008766;28;20048;-73
2022/08/08 09:37:25;;;;;;;6.10;1.45;;;;;;;;;;5012914;28;20036;-80
2022/08/08 09:39:51;;;;;;;4.05;1.50;;;;;;;;;;5010682;28;20032;-82
2022/08/08 09:42:19;;;;;;;5.50;1.52;;;;;;;;;;5012577;28;20041;-82
2022/08/08 09:44:53;;;;;;;4.80;1.50;;;;;;;;;;4994631;28;20045;-81
2022/08/08 09:47:22;;;;;;;2.67;1.30;;;;;;;;;;5015364;28;20402;-82
2022/08/08 09:49:47;;;;;;;4.45;1.42;;;;;;;;;;5014781;28;20041;-81
2022/08/08 09:52:15;;;;;;;4.90;1.20;;;;;;;;;;5048358;28;20274;-79
2022/08/08 09:54:42;;;;;;;7.70;1.50;;;;;;;;;;5016510;28;20175;-80
2022/08/08 09:57:09;;;;;;;5.57;1.40;;;;;;;;;;5004503;28;20609;-79
2022/08/08 09:59:37;;;;;;;4.13;1.90;;;;;;;;;;5026843;28;20516;-77
2022/08/08 10:02:03;;;;;;;4.60;1.40;;;;;;;;;;4996991;28;20300;-78
2022/08/08 10:04:30;;;;;;;5.22;1.48;;;;;;;;;;5013559;28;20040;-75
2022/08/08 10:06:55;;;;;;;5.35;1.58;;;;;;;;;;5023793;28;20414;-78
2022/08/08 10:09:33;;;;;;;5.20;1.73;;;;;;;;;;4999509;28;20045;-79
2022/08/08 10:12:03;;;;;;;6.70;1.60;;;;;;;;;;4995196;28;20766;-77
2022/08/08 10:14:32;;;;;;;4.80;1.30;;;;;;;;;;4995864;28;20124;-76
2022/08/08 10:16:57;;;;;;;5.50;1.38;;;;;;;;;;4995805;28;20040;-77
2022/08/08 10:19:32;;;;;;;3.13;1.20;;;;;;;;;;4996685;28;20430;-77
2022/08/08 10:21:58;;;;;;;5.50;1.65;;;;;;;;;;4998984;28;20768;-81
2022/08/08 10:24:23;;;;;;;4.15;1.30;;;;;;;;;;5001906;28;20647;-78
2022/08/08 10:26:51;;;;;;;4.13;1.35;;;;;;;;;;5034435;28;20030;-77
2022/08/08 10:29:37;;;;;;;5.30;1.30;;;;;;;;;;5006272;28;20197;-77
2022/08/08 10:34:49;;;;;;;6.35;1.75;;;;;;;;;;5016235;28;20422;-76
2022/08/08 10:37:20;;;;;;;4.88;1.38;;;;;;;;;;5009722;28;20039;-81
2022/08/08 10:39:47;;;;;;;2.60;1.23;;;;;;;;;;5012613;28;20030;-82
2022/08/08 10:42:14;;;;;;;4.55;1.30;;;;;;;;;;5003492;28;20466;-77
2022/08/08 10:44:40;;;;;;;4.85;1.45;;;;;;;;;;5002260;28;20185;-75
2022/08/08 10:47:09;;;;;;;3.38;1.25;;;;;;;;;;5000346;28;20433;-80
2022/08/08 10:49:34;;;;;;;4.20;1.48;;;;;;;;;;5005443;28;20525;-79
2022/08/08 10:52:00;;;;;;;3.53;1.05;;;;;;;;;;5001961;28;20543;-75
2022/08/08 10:54:28;;;;;;;5.38;1.50;;;;;;;;;;4999687;28;20033;-78
2022/08/08 10:56:56;;;;;;;4.75;1.30;;;;;;;;;;5001545;28;20045;-77
2022/08/08 10:59:27;;;;;;;3.97;1.30;;;;;;;;;;5000814;28;20033;-78
2022/08/08 11:01:53;;;;;;;4.90;1.27;;;;;;;;;;5000662;28;20208;-79
2022/08/08 11:04:18;;;;;;;5.38;1.50;;;;;;;;;;5017891;28;20126;-82
2022/08/08 11:06:46;;;;;;;5.10;1.30;;;;;;;;;;5003415;28;20576;-75
2022/08/08 11:09:14;;;;;;;5.22;1.27;;;;;;;;;;5008757;28;20393;-79
2022/08/08 11:11:40;;;;;;;5.72;1.30;;;;;;;;;;5043898;28;20314;-77
2022/08/08 11:14:06;;;;;;;3.38;1.08;;;;;;;;;;5014790;28;20494;-78
2022/08/08 11:16:33;;;;;;;4.57;1.40;;;;;;;;;;5016424;28;20065;-78
2022/08/08 11:18:59;;;;;;;3.83;1.30;;;;;;;;;;5018266;28;24316;-80
2022/08/08 11:21:27;;;;;;;6.55;1.33;;;;;;;;;;5009542;28;20036;-79
2022/08/08 11:23:55;;;;;;;3.35;1.30;;;;;;;;;;5003856;28;20369;-81
2022/08/08 11:26:21;;;;;;;3.92;1.40;;;;;;;;;;5018376;28;20033;-83
2022/08/08 11:28:46;;;;;;;4.50;1.17;;;;;;;;;;5015485;28;20107;-80
2022/08/08 11:31:15;;;;;;;3.67;1.23;;;;;;;;;;5038874;28;20038;-80
2022/08/08 11:33:47;;;;;;;3.45;1.45;;;;;;;;;;5029137;28;20399;-80
2022/08/08 11:36:13;;;;;;;4.53;1.20;;;;;;;;;;5048479;28;20114;-79
2022/08/08 11:38:40;;;;;;;4.55;1.45;;;;;;;;;;5059102;28;20112;-81
2022/08/08 11:41:07;;;;;;;2.50;1.17;;;;;;;;;;5066354;28;20030;-81
2022/08/08 11:43:33;;;;;;;3.20;1.10;;;;;;;;;;5023980;28;20038;-79
2022/08/08 11:45:59;;;;;;;4.25;1.30;;;;;;;;;;5042178;28;20040;-81
2022/08/08 11:48:24;;;;;;;3.92;1.20;;;;;;;;;;5044339;28;20573;-80
2022/08/08 11:50:50;;;;;;;4.53;1.50;;;;;;;;;;5036930;28;20472;-79
2022/08/08 11:53:18;;;;;;;5.47;1.70;;;;;;;;;;5033653;28;20079;-81
2022/08/08 11:55:50;;;;;;;3.05;1.13;;;;;;;;;;5069193;28;20483;-79
2022/08/08 11:58:16;;;;;;;3.92;1.25;;;;;;;;;;5056025;28;22935;-79
2022/08/08 12:00:45;;;;;;;4.57;1.15;;;;;;;;;;5052587;28;20056;-81
2022/08/08 12:03:15;;;;;;;3.38;1.30;;;;;;;;;;5047920;28;20040;-79
2022/08/08 12:05:47;;;;;;;6.00;1.27;;;;;;;;;;5063657;28;20052;-78
2022/08/08 12:08:13;;;;;;;3.53;1.38;;;;;;;;;;5045452;28;20063;-78
2022/08/08 12:10:45;;;;;;;3.65;1.20;;;;;;;;;;5049128;28;20058;-77
2022/08/08 12:13:13;;;;;;;3.97;1.30;;;;;;;;;;5049913;28;20035;-80
2022/08/08 12:15:50;;;;;;;4.82;1.17;;;;;;;;;;5049313;28;20163;-78
2022/08/08 12:18:17;;;;;;;4.10;1.17;;;;;;;;;;5035487;28;20055;-77
2022/08/08 12:20:42;;;;;;;2.70;1.00;;;;;;;;;;5019741;28;20041;-77
2022/08/08 12:23:08;;;;;;;3.75;1.08;;;;;;;;;;5027784;28;21845;-78
2022/08/08 12:25:33;;;;;;;6.20;1.60;;;;;;;;;;5042412;28;20140;-76
2022/08/08 12:28:09;;;;;;;4.28;1.25;;;;;;;;;;5007895;28;20041;-74
2022/08/08 12:30:38;;;;;;;5.03;1.10;;;;;;;;;;5015026;28;20040;-77
2022/08/08 12:33:03;;;;;;;4.20;1.10;;;;;;;;;;5019914;28;20040;-78
2022/08/08 12:35:39;;;;;;;2.97;0.98;;;;;;;;;;5020394;28;20411;-79
2022/08/08 12:38:11;;;;;;;3.20;1.00;;;;;;;;;;5020692;28;20048;-77
2022/08/08 12:40:36;;;;;;;;;;;;;;;;;;5043492;28;20509;-77
2022/08/08 12:43:01;;;;;;;3.00;1.20;;;;;;;;;;5035757;28;20496;-77
2022/08/08 12:45:34;;;;;;;4.18;1.27;;;;;;;;;;5025108;28;20338;-76
2022/08/08 12:48:01;;;;;;;3.95;1.15;;;;;;;;;;5028467;28;20040;-76
2022/08/08 12:50:36;;;;;;;3.30;1.10;;;;;;;;;;5037057;28;20041;-77
2022/08/08 12:53:01;;;;;;;3.13;1.10;;;;;;;;;;5034377;28;20041;-79
2022/08/08 12:55:27;;;;;;;4.20;1.20;;;;;;;;;;5035001;28;20033;-76
2022/08/08 12:57:55;;;;;;;5.28;1.30;;;;;;;;;;5040156;28;20117;-77
2022/08/08 13:00:26;;;;;;;3.53;0.95;;;;;;;;;;5038416;28;20037;-78
2022/08/08 13:02:56;;;;;;;4.47;1.33;;;;;;;;;;5018658;28;20084;-77
2022/08/08 13:05:23;;;;;;;4.50;1.27;;;;;;;;;;5016035;28;20048;-76
2022/08/08 13:07:48;;;;;;;4.50;1.40;;;;;;;;;;5012006;28;20029;-77
2022/08/08 13:10:14;;;;;;;3.83;1.58;;;;;;;;;;5005831;28;20102;-77
2022/08/08 13:12:43;;;;;;;5.28;1.50;;;;;;;;;;5012513;28;20048;-76
2022/08/08 13:15:10;;;;;;;4.32;1.30;;;;;;;;;;5034799;28;20038;-76
2022/08/08 13:17:36;;;;;;;2.35;1.20;;;;;;;;;;5020651;28;20037;-76
2022/08/08 13:20:05;;;;;;;3.78;1.20;;;;;;;;;;5032626;28;20120;-78
2022/08/08 13:22:33;;;;;;;2.30;0.90;;;;;;;;;;5021938;28;20037;-77
2022/08/08 13:25:01;;;;;;;4.45;1.20;;;;;;;;;;5030584;28;20037;-77
2022/08/08 13:27:30;;;;;;;5.53;1.10;;;;;;;;;;5019061;28;20243;-79
2022/08/08 13:30:01;;;;;;;3.97;1.15;;;;;;;;;;5026293;28;20627;-80
2022/08/08 13:32:28;;;;;;;2.67;0.90;;;;;;;;;;5036221;28;20033;-77
2022/08/08 13:34:57;;;;;;;3.50;1.00;;;;;;;;;;5046191;28;20567;-76
2022/08/08 13:37:26;;;;;;;3.97;1.25;;;;;;;;;;5045824;28;20362;-76
2022/08/08 13:39:53;;;;;;;2.42;0.98;;;;;;;;;;5043068;28;20056;-79
2022/08/08 13:42:19;;;;;;;2.38;0.90;;;;;;;;;;5019594;28;20073;-79
2022/08/08 13:44:45;;;;;;;3.72;0.90;;;;;;;;;;5019727;28;20175;-78
2022/08/08 13:47:14;;;;;;;5.05;1.10;;;;;;;;;;5017911;28;20190;-77
2022/08/08 13:49:40;;;;;;;3.97;1.00;;;;;;;;;;5023212;28;20041;-75
2022/08/08 13:52:06;;;;;;;3.13;1.02;;;;;;;;;;5019148;28;20039;-77
2022/08/08 13:54:35;;;;;;;2.45;0.88;;;;;;;;;;5038905;28;20060;-76
2022/08/08 13:57:08;;;;;;;3.20;0.80;;;;;;;;;;5075964;27;20782;-81
2022/08/08 13:59:34;;;;;;;2.63;1.00;;;;;;;;;;5024444;28;20052;-77
2022/08/08 14:02:00;;;;;;;4.40;1.10;;;;;;;;;;5033830;28;20029;-78
2022/08/08 14:04:26;;;;;;;4.25;1.10;;;;;;;;;;5023290;27;20626;-77
2022/08/08 14:06:57;;;;;;;3.42;1.02;;;;;;;;;;5032451;28;20579;-77
2022/08/08 14:09:31;;;;;;;2.95;1.00;;;;;;;;;;5036558;28;20075;-77
2022/08/08 14:11:57;;;;;;;2.75;0.93;;;;;;;;;;5040108;28;20029;-77
2022/08/08 14:14:39;;;;;;;4.72;1.17;;;;;;;;;;5034187;28;20025;-78
2022/08/08 14:17:06;;;;;;;;;;;;;;;;;;5037394;28;20635;-77
2022/08/08 14:19:37;;;;;;;4.00;0.90;;;;;;;;;;5052386;28;20197;-79
2022/08/08 14:22:16;;;;;;;4.00;1.27;;;;;;;;;;5047745;28;20508;-77
2022/08/08 14:24:50;;;;;;;5.00;1.20;;;;;;;;;;5052449;28;20024;-77
2022/08/08 14:27:23;;;;;;;3.58;1.10;;;;;;;;;;5043450;28;20062;-78
2022/08/08 14:30:10;;;;;;;6.40;1.30;;;;;;;;;;5022817;28;20039;-74
2022/08/08 14:32:42;;;;;;;3.95;1.40;;;;;;;;;;5010386;28;20037;-74
2022/08/08 14:35:08;;;;;;;4.40;1.40;;;;;;;;;;5008515;28;20102;-78
2022/08/08 14:37:38;;;;;;;4.15;1.00;;;;;;;;;;5007672;28;20037;-75
2022/08/08 14:40:04;;;;;;;3.67;1.30;;;;;;;;;;5008929;28;20203;-75
2022/08/08 14:42:34;;;;;;;3.53;1.00;;;;;;;;;;5011214;28;20324;-74
2022/08/08 14:45:01;;;;;;;2.95;1.10;;;;;;;;;;5009085;28;20380;-72
2022/08/08 14:47:27;;;;;;;3.65;1.10;;;;;;;;;;5011106;28;21036;-74
2022/08/08 14:50:02;;;;;;;2.15;1.10;;;;;;;;;;5011214;28;20052;-74
2022/08/08 14:52:37;;;;;;;4.68;1.17;;;;;;;;;;5027021;28;20040;-76
2022/08/08 14:55:03;;;;;;;8.07;1.20;;;;;;;;;;5010911;28;20048;-74
2022/08/08 14:57:28;;;;;;;4.18;1.40;;;;;;;;;;5024709;28;20208;-74
2022/08/08 14:59:53;;;;;;;4.43;1.40;;;;;;;;;;5010493;28;20121;-74
2022/08/08 15:02:22;;;;;;;4.03;1.20;;;;;;;;;;5008461;28;20048;-74
2022/08/08 15:04:48;;;;;;;3.40;1.17;;;;;;;;;;5011602;28;20033;-73
2022/08/08 15:07:13;;;;;;;4.07;1.15;;;;;;;;;;5017609;28;22312;-76